VTT France Pompiers 2017 - 03/06/2017

Master2

23 participants classés


Retour au Sommaire - Signaler une erreur - Faire défiler





Pl Do. Nom - Surname Prénom - Name S-Cat TEMPS - Time COULEUR TPS1 TPS2 TPS3 TOUR
1 1 NUBOIS JOËL MM2 01:35:35 BLANC 00:29:57 00:32:16 00:33:21 3
2 3 PENICHAUD PIERRE MM2 01:46:00 BLANC 00:35:03 00:35:11 00:35:45 3
3 10 DETRUISEUX JACQUES MM2 01:46:05 BLANC 00:34:48 00:35:15 00:36:02 3
4 25 JAVIERE MICHEL MM2 01:51:24 BLANC 00:35:41 00:38:03 00:37:39 3
5 9 DUHAMEL CHRISTIAN MM2 01:51:24 BLANC 00:35:37 00:37:37 00:38:09 3
6 28 GIRMA CHRISTIAN MM2 01:54:59 BLANC 00:36:05 00:38:36 00:40:17 3
7 13 CROZ DANIEL MM2 01:55:44 BLANC 00:38:17 00:37:50 00:39:36 3
8 14 BLACHON ROGER MM2 01:58:09 BLANC 00:39:57 00:38:38 00:39:33 3
9 24 PAOLI MARCEL MM2 02:00:09 BLANC 00:37:45 00:40:36 00:41:47 3
10 16 GODIGNON PIERRE MM2 02:01:30 BLANC 00:39:56 00:40:07 00:41:26 3
11 4 LAZARE ALAIN MM2 02:02:48 BLANC 00:40:32 00:38:57 00:43:17 3
12 15 TRIMOUILLE CHRISTIAN MM2 02:06:17 BLANC 00:44:59 00:38:34 00:42:43 3
13 21 GORGONI JEAN-CLAUDE MM2 02:09:29 BLANC 00:43:06 00:43:18 00:43:04 3
14 5 BLOCH JEAN-LOUIS MM2 02:10:53 BLANC 00:42:55 00:43:19 00:44:38 3
15 6 SCHLEGEL ANTOINE MM2 02:14:06 BLANC 00:41:02 00:44:20 00:48:43 3
16 22 AUTRET FRANÇOIS MM2 02:14:33 BLANC 00:41:49 00:44:16 00:48:27 3
17 11 VALETTE ROBERT MM2 01:25:10 BLANC 00:50:10 00:34:59   2
18 8 AMISSE CHRISTIAN MM2 01:32:45 BLANC 00:41:46 00:50:58   2
19 20 SALINGUE PATRICK MM2 01:40:43 BLANC 00:50:45 00:49:58   2
20 27 JANIN MARCEL MM2 01:43:56 BLANC 00:50:11 00:53:44   2
21 19 CUSSET ENNEMOND MM2 01:48:08 BLANC 00:51:25 00:56:42   2
22 17 GAY ANDRÉ MM2 01:48:09 BLANC 00:53:46 00:54:23   2
23 26 MIGNARD JEAN-CLAUDE MM2 01:59:23 BLANC 00:55:46 01:03:36   2

Aucun commentaires pour le moment, donnez votre avis, vos impressions avant, pendant! et après la course

Déjà membre? Identifiez-vous pour commenter l'épreuve ou créer un compte